Terminal Aerodrome Forecast
Issued by NWS Duluth, MN

Home | Current Version | Previous Version | Text Only | Print | Product List | Glossary On
Versions: 1 2 3 4 5 6 7 8 9 10 11 12 13 14 15 16 17 18 19 20 21 22 23 24 25 26 27 28 29 30 31 32 33
000
FTUS43 KDLH 051202 AAA
TAFDLH
TAF AMD
KDLH 051202Z 0512/0612 10007KT P6SM OVC009
      TEMPO 0512/0514 1/2SM FG BKN002
     FM051400 14009KT P6SM FEW015 BKN100
     FM060200 14005KT P6SM VCTS SCT035CB SCT120
     FM060600 11005KT P6SM VCSH SCT035 BKN120 WS015/20040KT=

USA.gov is the U.S. government's official web portal to all federal, state and local government web resources and services.